createdAt,value
2022-10-26T00:01:13.338Z,99.90
2022-10-26T00:03:43.661Z,99.90
2022-10-26T00:06:15.171Z,99.90
2022-10-26T00:08:43.572Z,99.90
2022-10-26T00:11:12.679Z,99.90
2022-10-26T00:13:41.829Z,99.90
2022-10-26T00:16:11.438Z,99.90
2022-10-26T00:18:40.401Z,99.90
2022-10-26T00:21:10.585Z,99.90
2022-10-26T00:23:40.205Z,99.90
2022-10-26T00:26:09.021Z,99.90
2022-10-26T00:28:37.346Z,99.90
2022-10-26T00:31:07.697Z,99.90
2022-10-26T00:33:36.012Z,99.90
2022-10-26T00:36:04.690Z,99.90
2022-10-26T00:38:32.804Z,99.90
2022-10-26T00:41:02.211Z,99.90
2022-10-26T00:43:38.477Z,99.90
2022-10-26T00:46:10.754Z,99.90
2022-10-26T00:48:43.248Z,99.90
2022-10-26T00:51:15.854Z,99.90
2022-10-26T00:53:44.448Z,99.90
2022-10-26T00:56:14.159Z,99.90
2022-10-26T00:58:42.286Z,99.90
2022-10-26T01:01:10.484Z,99.90
2022-10-26T01:03:40.305Z,99.90
2022-10-26T01:06:10.328Z,99.90
2022-10-26T01:08:38.594Z,99.90
2022-10-26T01:11:07.220Z,99.90
2022-10-26T01:13:38.569Z,99.90
2022-10-26T01:16:31.696Z,99.90
2022-10-26T01:19:16.551Z,99.90
2022-10-26T01:21:52.116Z,99.90
2022-10-26T01:24:40.291Z,99.90
2022-10-26T01:27:25.866Z,99.90
2022-10-26T01:30:18.785Z,99.90
2022-10-26T01:32:55.272Z,99.90
2022-10-26T01:35:29.068Z,99.90
2022-10-26T01:38:04.307Z,99.90
2022-10-26T01:40:37.528Z,99.90
2022-10-26T01:43:10.480Z,99.90
2022-10-26T01:45:44.928Z,99.90
2022-10-26T01:48:17.272Z,99.90
2022-10-26T01:50:48.759Z,99.90
2022-10-26T01:53:18.256Z,99.90
2022-10-26T01:55:49.834Z,99.90
2022-10-26T01:58:40.113Z,99.90
2022-10-26T02:01:23.138Z,99.90
2022-10-26T02:03:59.609Z,99.90
2022-10-26T02:06:38.926Z,99.90
2022-10-26T02:09:17.764Z,99.90
2022-10-26T02:11:49.211Z,99.90
2022-10-26T02:14:21.528Z,99.90
2022-10-26T02:16:56.257Z,99.90
2022-10-26T02:19:33.017Z,99.90
2022-10-26T02:22:07.758Z,99.90
2022-10-26T02:24:38.292Z,99.90
2022-10-26T02:27:09.278Z,99.90
2022-10-26T02:29:37.912Z,99.90
2022-10-26T02:32:09.374Z,99.90
2022-10-26T02:34:39.417Z,99.90
2022-10-26T02:37:09.379Z,99.90
2022-10-26T02:39:40.142Z,99.90
2022-10-26T02:42:10.614Z,99.90
2022-10-26T02:44:43.919Z,99.90
2022-10-26T02:47:14.183Z,99.90
2022-10-26T02:49:42.590Z,99.90
2022-10-26T02:52:16.507Z,99.90
2022-10-26T02:54:53.390Z,99.90
2022-10-26T02:57:27.509Z,99.90
2022-10-26T02:59:56.206Z,99.90
2022-10-26T03:02:26.607Z,99.90
2022-10-26T03:04:55.957Z,99.90
2022-10-26T03:07:24.701Z,99.90
2022-10-26T03:09:53.162Z,99.90
2022-10-26T03:12:21.159Z,99.90
2022-10-26T03:14:49.127Z,99.90
2022-10-26T03:17:17.137Z,99.90
2022-10-26T03:19:46.503Z,99.90
2022-10-26T03:22:14.514Z,99.90
2022-10-26T03:24:42.501Z,99.90
2022-10-26T03:27:10.550Z,99.90
2022-10-26T03:29:40.575Z,99.90
2022-10-26T03:32:08.918Z,99.90
2022-10-26T03:34:36.907Z,99.90
2022-10-26T03:37:06.228Z,99.90
2022-10-26T03:39:34.218Z,99.90
2022-10-26T03:42:03.292Z,99.90
2022-10-26T03:44:31.335Z,99.90
2022-10-26T03:46:59.323Z,99.90
2022-10-26T03:49:27.328Z,99.90
2022-10-26T03:51:55.359Z,99.90
2022-10-26T03:54:25.063Z,99.90
2022-10-26T03:56:55.182Z,99.90
2022-10-26T03:59:23.598Z,99.90
2022-10-26T04:01:54.167Z,99.90
2022-10-26T04:04:25.116Z,99.90
2022-10-26T04:06:53.259Z,99.90
2022-10-26T04:09:21.335Z,99.90
2022-10-26T04:11:50.830Z,99.90
2022-10-26T04:14:18.822Z,99.90
2022-10-26T04:16:46.851Z,99.90
2022-10-26T04:19:14.877Z,99.90
2022-10-26T04:21:42.857Z,99.90
2022-10-26T04:24:12.046Z,99.90
2022-10-26T04:26:40.021Z,99.90
2022-10-26T04:29:09.372Z,99.90
2022-10-26T04:31:37.442Z,99.90
2022-10-26T04:34:05.778Z,99.90
2022-10-26T04:36:34.536Z,99.90
2022-10-26T04:39:02.706Z,99.90
2022-10-26T04:41:31.828Z,99.90
2022-10-26T04:44:00.025Z,99.90
2022-10-26T04:46:29.676Z,99.90
2022-10-26T04:48:57.658Z,99.90
2022-10-26T04:51:25.698Z,99.90
2022-10-26T04:53:55.933Z,99.90
2022-10-26T04:56:23.922Z,99.90
2022-10-26T04:58:54.801Z,99.90
2022-10-26T05:01:23.160Z,99.90
2022-10-26T05:03:53.341Z,99.90
2022-10-26T05:06:21.635Z,99.90
2022-10-26T05:08:49.877Z,99.90
2022-10-26T05:11:17.858Z,99.90
2022-10-26T05:13:47.784Z,99.90
2022-10-26T05:16:16.431Z,99.90
2022-10-26T05:18:44.394Z,99.90
2022-10-26T05:21:19.231Z,99.90
2022-10-26T05:23:52.429Z,99.90
2022-10-26T05:26:20.481Z,99.90
2022-10-26T05:28:48.490Z,99.90
2022-10-26T05:31:16.531Z,99.90
2022-10-26T05:33:44.542Z,99.90
2022-10-26T05:36:13.937Z,99.90
2022-10-26T05:38:42.943Z,99.90
2022-10-26T05:41:10.951Z,99.90
2022-10-26T05:43:38.992Z,99.90
2022-10-26T05:46:07.226Z,99.90
2022-10-26T05:48:35.503Z,99.90
2022-10-26T05:51:03.488Z,99.90
2022-10-26T05:53:32.854Z,99.90
2022-10-26T05:56:01.325Z,99.90
2022-10-26T05:58:29.839Z,99.90
2022-10-26T06:01:14.133Z,99.90
2022-10-26T06:03:57.194Z,99.90
2022-10-26T06:06:27.813Z,99.90
2022-10-26T06:08:57.673Z,99.90
2022-10-26T06:11:26.120Z,99.90
2022-10-26T06:13:59.698Z,99.90
2022-10-26T06:16:39.475Z,99.90
2022-10-26T06:19:18.607Z,99.90
2022-10-26T06:22:01.003Z,99.90
2022-10-26T06:24:38.727Z,99.90
2022-10-26T06:27:19.635Z,99.90
2022-10-26T06:29:56.971Z,99.90
2022-10-26T06:32:25.848Z,99.90
2022-10-26T06:35:04.869Z,99.90
2022-10-26T06:37:43.655Z,99.90
2022-10-26T06:40:15.920Z,99.90
2022-10-26T06:42:44.823Z,99.90
2022-10-26T06:47:54.068Z,99.90
2022-10-26T06:50:33.216Z,99.90
2022-10-26T06:53:13.781Z,99.90
2022-10-26T06:55:45.756Z,99.90
2022-10-26T06:58:18.195Z,99.90
2022-10-26T07:00:47.853Z,95.70
2022-10-26T07:03:15.908Z,92.00
2022-10-26T07:05:45.004Z,89.30
2022-10-26T07:08:13.185Z,83.60
2022-10-26T07:10:43.544Z,76.10
2022-10-26T07:13:12.344Z,69.60
2022-10-26T07:15:42.847Z,61.60
2022-10-26T07:18:11.410Z,53.20
2022-10-26T07:20:43.882Z,36.50
2022-10-26T07:23:12.045Z,27.70
2022-10-26T07:25:40.813Z,18.10
2022-10-26T07:28:11.488Z,8.20
2022-10-26T07:30:40.612Z,1.00
2022-10-26T07:33:10.230Z,1.00
2022-10-26T07:35:38.853Z,1.00
2022-10-26T07:38:07.472Z,1.00
2022-10-26T07:40:36.835Z,1.00
2022-10-26T07:43:05.452Z,1.00
2022-10-26T07:45:37.160Z,1.00
2022-10-26T07:48:05.378Z,1.00
2022-10-26T07:50:33.379Z,1.00
2022-10-26T07:53:01.348Z,1.00
2022-10-26T07:55:29.362Z,1.00
2022-10-26T07:57:57.874Z,99.90
2022-10-26T08:00:28.774Z,99.90
2022-10-26T08:02:58.508Z,99.90
2022-10-26T08:05:26.789Z,99.90
2022-10-26T08:07:54.816Z,99.90
2022-10-26T08:10:23.395Z,99.90
2022-10-26T08:12:53.963Z,99.90
2022-10-26T08:15:22.390Z,99.90
2022-10-26T08:17:50.593Z,99.90
2022-10-26T08:20:21.310Z,99.90
2022-10-26T08:22:49.698Z,99.90
2022-10-26T08:25:20.545Z,36.00
2022-10-26T08:27:49.594Z,1.70
2022-10-26T08:30:18.812Z,26.20
2022-10-26T08:32:47.539Z,1.00
2022-10-26T08:35:16.349Z,1.00
2022-10-26T08:37:45.691Z,1.00
2022-10-26T08:40:17.767Z,99.90
2022-10-26T08:42:49.106Z,99.90
2022-10-26T08:45:31.773Z,99.90
2022-10-26T08:48:05.725Z,99.90
2022-10-26T08:50:40.469Z,99.90
2022-10-26T08:53:18.522Z,99.90
2022-10-26T08:55:51.209Z,96.60
2022-10-26T08:58:25.002Z,76.70
2022-10-26T09:00:53.947Z,1.00
2022-10-26T09:03:22.167Z,1.00
2022-10-26T09:06:11.346Z,99.90
2022-10-26T09:08:48.620Z,99.90
2022-10-26T09:11:24.968Z,99.90
2022-10-26T09:14:05.209Z,99.90
2022-10-26T09:16:41.571Z,21.70
2022-10-26T09:19:36.702Z,1.00
2022-10-26T09:22:10.418Z,27.50
2022-10-26T09:24:43.338Z,1.00
2022-10-26T09:27:19.929Z,99.90
2022-10-26T09:29:49.204Z,1.00
2022-10-26T09:32:21.337Z,99.90
2022-10-26T09:34:54.664Z,1.00
2022-10-26T09:37:26.989Z,99.90
2022-10-26T09:40:06.350Z,99.90
2022-10-26T09:42:41.847Z,99.90
2022-10-26T09:45:17.971Z,99.90
2022-10-26T09:47:52.219Z,34.00
2022-10-26T09:50:25.861Z,1.00
2022-10-26T09:52:53.919Z,1.00
2022-10-26T09:55:23.458Z,99.90
2022-10-26T09:57:54.938Z,1.00
2022-10-26T10:00:26.420Z,99.90
2022-10-26T10:02:56.285Z,99.90
2022-10-26T10:05:50.382Z,99.90
2022-10-26T10:08:21.076Z,99.90
2022-10-26T10:10:57.502Z,3.00
2022-10-26T10:13:27.759Z,99.90
2022-10-26T10:16:03.318Z,99.90
2022-10-26T10:18:31.585Z,99.90
2022-10-26T10:21:02.715Z,99.90
2022-10-26T10:23:32.966Z,99.90
2022-10-26T10:26:07.480Z,99.90
2022-10-26T10:28:36.164Z,99.90
2022-10-26T10:31:06.955Z,1.00
2022-10-26T10:33:38.190Z,1.00
2022-10-26T10:36:12.240Z,16.40
2022-10-26T10:38:47.642Z,28.10
2022-10-26T10:41:20.986Z,99.90
2022-10-26T10:43:52.839Z,99.90
2022-10-26T10:46:23.715Z,99.90
2022-10-26T10:49:03.570Z,99.90
2022-10-26T10:51:37.739Z,99.90
2022-10-26T10:54:07.010Z,99.90
2022-10-26T10:56:42.165Z,99.90
2022-10-26T10:59:25.465Z,99.90
2022-10-26T11:02:12.432Z,99.90
2022-10-26T11:04:58.188Z,99.90
2022-10-26T11:07:28.034Z,99.90
2022-10-26T11:09:58.352Z,99.90
2022-10-26T11:12:31.614Z,99.90
2022-10-26T11:15:06.113Z,99.90
2022-10-26T11:17:49.073Z,99.90
2022-10-26T11:20:22.637Z,99.90
2022-10-26T11:25:41.250Z,99.90
2022-10-26T11:28:20.327Z,99.90
2022-10-26T11:30:53.277Z,99.90
2022-10-26T11:33:26.340Z,85.50
2022-10-26T11:35:58.947Z,77.70
2022-10-26T11:38:46.325Z,48.30
2022-10-26T11:41:26.780Z,1.00
2022-10-26T11:44:03.959Z,22.70
2022-10-26T11:46:39.735Z,50.80
2022-10-26T11:49:15.717Z,8.10
2022-10-26T11:51:47.905Z,42.40
2022-10-26T11:56:57.764Z,51.00
2022-10-26T11:59:33.088Z,76.40
2022-10-26T12:02:06.387Z,95.20
2022-10-26T12:04:38.415Z,83.00
2022-10-26T12:07:14.185Z,99.90
2022-10-26T12:09:44.478Z,99.90
2022-10-26T12:12:20.884Z,99.90
2022-10-26T12:14:56.260Z,99.90
2022-10-26T12:17:29.810Z,99.90
2022-10-26T12:20:06.496Z,99.90
2022-10-26T12:22:38.501Z,99.90
2022-10-26T12:25:18.788Z,99.90
2022-10-26T12:27:57.726Z,99.90
2022-10-26T12:30:32.042Z,99.90
2022-10-26T12:33:03.851Z,65.00
2022-10-26T12:35:43.610Z,35.60
2022-10-26T12:39:00.842Z,48.10
2022-10-26T12:41:29.523Z,14.00
2022-10-26T12:44:24.888Z,1.00
2022-10-26T12:46:54.267Z,1.00
2022-10-26T12:50:00.754Z,1.00
2022-10-26T12:52:51.271Z,18.70
2022-10-26T12:55:56.152Z,1.00
2022-10-26T12:58:59.132Z,1.00
2022-10-26T13:01:59.213Z,99.90
2022-10-26T13:04:59.506Z,1.00
2022-10-26T13:07:34.906Z,1.00
2022-10-26T13:10:07.614Z,1.00
2022-10-26T13:12:48.371Z,1.00
2022-10-26T13:15:25.788Z,1.00
2022-10-26T13:17:57.447Z,99.90
2022-10-26T13:20:27.321Z,99.90
2022-10-26T13:22:55.578Z,99.90
2022-10-26T13:25:25.935Z,1.00
2022-10-26T13:28:01.816Z,99.90
2022-10-26T13:30:46.545Z,1.00
2022-10-26T13:33:37.276Z,1.00
2022-10-26T13:36:16.390Z,1.00
2022-10-26T13:38:47.843Z,1.00
2022-10-26T13:41:24.129Z,1.00
2022-10-26T13:43:53.454Z,1.00
2022-10-26T13:46:26.759Z,1.00
2022-10-26T13:49:00.057Z,1.00
2022-10-26T13:51:40.939Z,1.00
2022-10-26T13:54:19.448Z,1.00
2022-10-26T13:56:57.229Z,1.00
2022-10-26T13:59:27.450Z,1.00
2022-10-26T14:02:08.031Z,1.00
2022-10-26T14:04:36.063Z,90.00
2022-10-26T14:07:06.630Z,52.80
2022-10-26T14:09:34.737Z,64.80
2022-10-26T14:12:03.337Z,46.80
2022-10-26T14:14:34.030Z,35.40
2022-10-26T14:17:05.141Z,65.70
2022-10-26T14:19:36.790Z,23.70
2022-10-26T14:22:06.898Z,2.00
2022-10-26T14:24:47.017Z,1.00
2022-10-26T14:27:17.628Z,1.00
2022-10-26T14:29:54.162Z,99.90
2022-10-26T14:32:35.649Z,99.90
2022-10-26T14:35:04.005Z,99.90
2022-10-26T14:37:39.646Z,99.90
2022-10-26T14:40:09.281Z,1.00
2022-10-26T14:42:41.971Z,1.00
2022-10-26T14:45:29.779Z,1.00
2022-10-26T14:48:06.290Z,1.00
2022-10-26T14:50:36.470Z,1.00
2022-10-26T14:53:15.958Z,1.00
2022-10-26T14:55:47.381Z,29.40
2022-10-26T14:58:26.718Z,99.90
2022-10-26T15:01:17.642Z,99.90
2022-10-26T15:03:46.465Z,99.90
2022-10-26T15:06:30.341Z,99.90
2022-10-26T15:09:01.158Z,99.90
2022-10-26T15:11:30.349Z,99.90
2022-10-26T15:13:59.781Z,99.90
2022-10-26T15:16:30.181Z,99.90
2022-10-26T15:19:01.038Z,99.90
2022-10-26T15:21:35.783Z,99.90
2022-10-26T15:24:13.606Z,99.90
2022-10-26T15:26:44.406Z,99.90
2022-10-26T15:29:39.002Z,99.90
2022-10-26T15:32:18.657Z,99.90
2022-10-26T15:35:04.202Z,99.90
2022-10-26T15:37:32.208Z,99.90
2022-10-26T15:40:02.254Z,99.90
2022-10-26T15:42:30.402Z,1.00
2022-10-26T15:44:59.525Z,1.00
2022-10-26T15:47:33.925Z,1.00
2022-10-26T15:50:03.091Z,1.00
2022-10-26T15:52:32.743Z,1.00
2022-10-26T15:55:02.112Z,1.00
2022-10-26T15:57:30.157Z,1.00
2022-10-26T15:59:58.121Z,1.00
2022-10-26T16:02:26.135Z,1.00
2022-10-26T16:04:54.201Z,1.00
2022-10-26T16:07:24.478Z,1.00
2022-10-26T16:09:52.853Z,1.00
2022-10-26T16:12:22.206Z,1.00
2022-10-26T16:15:06.405Z,1.00
2022-10-26T16:17:34.625Z,1.00
2022-10-26T16:20:07.981Z,1.00
2022-10-26T16:22:38.406Z,1.00
2022-10-26T16:25:07.596Z,1.00
2022-10-26T16:27:36.971Z,1.00
2022-10-26T16:30:05.530Z,1.00
2022-10-26T16:32:33.598Z,1.00
2022-10-26T16:35:01.798Z,1.00
2022-10-26T16:37:31.334Z,1.00
2022-10-26T16:40:00.248Z,1.00
2022-10-26T16:42:28.430Z,1.00
2022-10-26T16:45:00.186Z,1.00
2022-10-26T16:47:30.744Z,1.00
2022-10-26T16:49:58.769Z,1.00
2022-10-26T16:52:26.761Z,1.00
2022-10-26T16:54:55.010Z,5.90
2022-10-26T16:57:23.034Z,7.80
2022-10-26T16:59:51.063Z,14.60
2022-10-26T17:02:20.619Z,19.40
2022-10-26T17:04:48.769Z,22.40
2022-10-26T17:07:16.821Z,24.40
2022-10-26T17:09:44.838Z,28.00
2022-10-26T17:12:12.847Z,31.30
2022-10-26T17:14:40.843Z,37.10
2022-10-26T17:17:08.870Z,41.20
2022-10-26T17:19:38.657Z,47.00
2022-10-26T17:22:08.710Z,49.40
2022-10-26T17:24:36.934Z,52.50
2022-10-26T17:27:05.104Z,54.70
2022-10-26T17:29:33.093Z,58.10
2022-10-26T17:32:01.805Z,60.30
2022-10-26T17:34:30.043Z,62.10
2022-10-26T17:36:59.426Z,65.20
2022-10-26T17:39:27.563Z,65.40
2022-10-26T17:41:55.556Z,68.70
2022-10-26T17:44:26.446Z,71.30
2022-10-26T17:46:54.718Z,73.50
2022-10-26T17:49:25.098Z,76.20
2022-10-26T17:51:55.013Z,79.60
2022-10-26T17:54:24.573Z,81.20
2022-10-26T17:56:52.604Z,81.70
2022-10-26T17:59:20.576Z,82.80
2022-10-26T18:01:48.822Z,82.90
2022-10-26T18:04:16.882Z,85.00
2022-10-26T18:06:44.860Z,88.70
2022-10-26T18:09:12.887Z,89.60
2022-10-26T18:11:42.256Z,89.80
2022-10-26T18:14:13.773Z,90.10
2022-10-26T18:16:44.048Z,90.40
2022-10-26T18:19:12.085Z,91.40
2022-10-26T18:21:40.048Z,91.80
2022-10-26T18:24:09.353Z,92.20
2022-10-26T18:26:37.762Z,92.50
2022-10-26T18:29:07.311Z,93.40
2022-10-26T18:31:35.798Z,93.60
2022-10-26T18:34:05.828Z,94.10
2022-10-26T18:36:34.384Z,94.60
2022-10-26T18:39:02.445Z,95.00
2022-10-26T18:41:32.922Z,95.90
2022-10-26T18:44:02.142Z,96.20
2022-10-26T18:46:33.829Z,96.50
2022-10-26T18:49:01.929Z,96.30
2022-10-26T18:51:32.795Z,96.50
2022-10-26T18:54:01.307Z,97.10
2022-10-26T18:56:29.432Z,97.30
2022-10-26T18:58:58.748Z,97.30
2022-10-26T19:01:28.855Z,97.70
2022-10-26T19:04:00.422Z,97.90
2022-10-26T19:06:31.043Z,98.30
2022-10-26T19:08:59.352Z,98.10
2022-10-26T19:11:29.362Z,98.60
2022-10-26T19:13:57.650Z,99.10
2022-10-26T19:19:18.303Z,99.60
2022-10-26T19:21:47.307Z,99.50
2022-10-26T19:24:17.235Z,99.80
2022-10-26T19:26:45.928Z,99.90
2022-10-26T19:29:16.082Z,99.90
2022-10-26T19:31:45.953Z,99.90
2022-10-26T19:34:14.912Z,99.90
2022-10-26T19:36:46.166Z,99.90
2022-10-26T19:39:14.978Z,99.90
2022-10-26T19:41:43.632Z,99.90
2022-10-26T19:44:12.469Z,99.90
2022-10-26T19:46:40.810Z,99.90
2022-10-26T19:49:09.209Z,99.90
2022-10-26T19:51:37.418Z,99.90
2022-10-26T19:54:07.616Z,99.90
2022-10-26T19:56:37.485Z,99.90
2022-10-26T19:59:06.112Z,99.90
2022-10-26T20:01:34.196Z,99.90
2022-10-26T20:04:05.567Z,99.90
2022-10-26T20:06:33.575Z,99.90
2022-10-26T20:09:02.359Z,99.90
2022-10-26T20:11:32.396Z,99.90
2022-10-26T20:14:00.705Z,99.90
2022-10-26T20:16:28.680Z,99.90
2022-10-26T20:18:56.695Z,99.90
2022-10-26T20:21:24.727Z,99.90
2022-10-26T20:23:52.737Z,99.90
2022-10-26T20:26:21.460Z,99.90
2022-10-26T20:28:52.752Z,99.90
2022-10-26T20:31:20.908Z,99.90
2022-10-26T20:33:52.173Z,99.90
2022-10-26T20:36:23.615Z,99.90
2022-10-26T20:38:52.174Z,99.90
2022-10-26T20:41:20.782Z,99.90
2022-10-26T20:43:51.308Z,99.90
2022-10-26T20:46:25.884Z,99.90
2022-10-26T20:48:55.213Z,99.90
2022-10-26T20:51:56.759Z,99.90
2022-10-26T20:54:34.260Z,99.90
2022-10-26T20:57:04.647Z,99.90
2022-10-26T20:59:40.075Z,99.90
2022-10-26T21:02:11.757Z,99.90
2022-10-26T21:04:39.845Z,99.90
2022-10-26T21:07:07.849Z,99.90
2022-10-26T21:09:36.821Z,99.90
2022-10-26T21:12:05.264Z,99.90
2022-10-26T21:14:39.432Z,99.90
2022-10-26T21:17:07.611Z,99.90
2022-10-26T21:19:37.210Z,99.90
2022-10-26T21:22:05.496Z,99.90
2022-10-26T21:24:33.580Z,99.90
2022-10-26T21:27:01.622Z,99.90
2022-10-26T21:29:29.676Z,99.90
2022-10-26T21:31:57.734Z,99.90
2022-10-26T21:34:25.773Z,99.90
2022-10-26T21:36:55.155Z,99.90
2022-10-26T21:39:23.165Z,99.90
2022-10-26T21:41:51.138Z,99.90
2022-10-26T21:44:40.532Z,99.90
2022-10-26T21:47:07.092Z,99.90
2022-10-26T21:49:35.116Z,99.90
2022-10-26T21:52:06.344Z,99.90
2022-10-26T21:54:36.979Z,99.90
2022-10-26T21:57:05.158Z,99.90
2022-10-26T21:59:33.181Z,99.90
2022-10-26T22:02:01.279Z,99.90
2022-10-26T22:04:29.385Z,99.90
2022-10-26T22:06:57.361Z,99.90
2022-10-26T22:09:26.748Z,99.90
2022-10-26T22:11:54.704Z,99.90
2022-10-26T22:14:23.495Z,99.90
2022-10-26T22:16:51.487Z,99.90
2022-10-26T22:19:19.493Z,99.90
2022-10-26T22:21:47.446Z,99.90
2022-10-26T22:24:15.588Z,99.90
2022-10-26T22:26:44.939Z,99.90
2022-10-26T22:29:12.920Z,99.90
2022-10-26T22:31:41.515Z,99.90
2022-10-26T22:34:14.945Z,99.90
2022-10-26T22:36:43.485Z,99.90
2022-10-26T22:39:11.462Z,99.90
2022-10-26T22:41:39.630Z,99.90
2022-10-26T22:44:09.294Z,99.90
2022-10-26T22:46:37.320Z,99.90
2022-10-26T22:49:05.283Z,99.90
2022-10-26T22:51:34.871Z,99.90
2022-10-26T22:54:07.349Z,99.90
2022-10-26T22:56:37.170Z,99.90
2022-10-26T22:59:05.516Z,99.90
2022-10-26T23:01:38.140Z,99.90
2022-10-26T23:04:06.516Z,99.90
2022-10-26T23:06:34.917Z,99.90
2022-10-26T23:09:02.905Z,99.90
2022-10-26T23:11:32.068Z,99.90
2022-10-26T23:14:01.814Z,99.90
2022-10-26T23:16:31.039Z,99.90
2022-10-26T23:19:01.346Z,99.90
2022-10-26T23:21:29.985Z,99.90
2022-10-26T23:23:58.765Z,99.90
2022-10-26T23:26:26.863Z,99.90
2022-10-26T23:28:54.939Z,99.90
2022-10-26T23:31:25.488Z,99.90
2022-10-26T23:33:55.411Z,99.90
2022-10-26T23:36:25.304Z,99.90
2022-10-26T23:38:53.625Z,99.90
2022-10-26T23:41:21.600Z,99.90
2022-10-26T23:43:49.584Z,99.90
2022-10-26T23:46:17.706Z,99.90
2022-10-26T23:48:45.956Z,99.90
2022-10-26T23:51:13.951Z,99.90
2022-10-26T23:53:43.412Z,99.90
2022-10-26T23:56:11.427Z,99.90
2022-10-26T23:58:39.424Z,99.90
